Time;durP1;ratioP1;P1;durP2;ratioP2;P2;SDS_P1;SDS_P2;PMS_P1;PMS_P2;Temp;Humidity;BMP_temperature;BMP_pressure;BME280_temperature;BME280_humidity;BME280_pressure;Samples;Min_cycle;Max_cycle;Signal;HPM_P1;HPM_P2
2022/04/11 00:02:03;;;;;;;8.65;4.45;;;;;;;;;;5086671;27;20166;-74
2022/04/11 00:04:30;;;;;;;8.23;5.10;;;;;;;;;;5090554;28;20055;-76
2022/04/11 00:06:56;;;;;;;11.80;5.53;;;;;;;;;;5087505;28;20044;-73
2022/04/11 00:09:22;;;;;;;9.30;5.45;;;;;;;;;;5085933;28;20052;-74
2022/04/11 00:11:48;;;;;;;8.15;4.88;;;;;;;;;;5103286;27;20043;-73
2022/04/11 00:14:14;;;;;;;7.57;4.85;;;;;;;;;;5083712;27;20032;-73
2022/04/11 00:16:40;;;;;;;11.20;4.82;;;;;;;;;;5053632;27;20043;-75
2022/04/11 00:19:08;;;;;;;7.00;4.22;;;;;;;;;;5084627;27;20051;-73
2022/04/11 00:21:35;;;;;;;6.80;4.75;;;;;;;;;;5122784;27;20048;-75
2022/04/11 00:24:01;;;;;;;11.23;5.10;;;;;;;;;;5073046;28;20471;-73
2022/04/11 00:26:27;;;;;;;8.75;4.13;;;;;;;;;;5070310;27;20047;-74
2022/04/11 00:28:53;;;;;;;9.45;4.53;;;;;;;;;;5102029;27;20071;-73
2022/04/11 00:31:19;;;;;;;9.15;4.70;;;;;;;;;;5070145;28;20052;-73
2022/04/11 00:33:46;;;;;;;7.03;4.20;;;;;;;;;;5068498;27;20035;-73
2022/04/11 00:36:12;;;;;;;7.22;4.43;;;;;;;;;;5081377;28;20063;-75
2022/04/11 00:38:38;;;;;;;6.47;4.05;;;;;;;;;;5084272;28;20044;-74
2022/04/11 00:41:04;;;;;;;6.03;4.30;;;;;;;;;;5081208;28;20052;-74
2022/04/11 00:43:30;;;;;;;8.48;4.20;;;;;;;;;;5053599;28;20051;-73
2022/04/11 00:45:57;;;;;;;9.15;4.20;;;;;;;;;;5065383;28;20044;-73
2022/04/11 00:48:23;;;;;;;6.60;4.03;;;;;;;;;;5086769;28;20047;-74
2022/04/11 00:50:50;;;;;;;6.82;4.03;;;;;;;;;;5083032;28;20043;-73
2022/04/11 00:53:16;;;;;;;7.43;3.58;;;;;;;;;;5068221;28;20085;-74
2022/04/11 00:55:42;;;;;;;10.20;4.03;;;;;;;;;;5085976;28;20130;-74
2022/04/11 00:58:08;;;;;;;6.28;3.70;;;;;;;;;;5084763;28;20339;-74
2022/04/11 01:00:36;;;;;;;9.02;3.83;;;;;;;;;;5065973;28;20052;-74
2022/04/11 01:03:03;;;;;;;6.45;3.90;;;;;;;;;;5054224;28;20043;-73
2022/04/11 01:05:29;;;;;;;7.53;3.95;;;;;;;;;;5083019;28;20072;-73
2022/04/11 01:07:58;;;;;;;11.20;4.68;;;;;;;;;;5065607;28;20047;-75
2022/04/11 01:10:24;;;;;;;8.05;3.95;;;;;;;;;;5081370;28;20040;-73
2022/04/11 01:12:50;;;;;;;7.15;3.80;;;;;;;;;;5082872;28;20479;-73
2022/04/11 01:15:16;;;;;;;9.55;3.88;;;;;;;;;;5083770;28;21579;-74
2022/04/11 01:17:42;;;;;;;7.05;3.75;;;;;;;;;;5065776;28;20056;-73
2022/04/11 01:20:10;;;;;;;5.65;3.47;;;;;;;;;;5057271;28;20155;-74
2022/04/11 01:22:36;;;;;;;8.85;3.90;;;;;;;;;;5067012;28;20056;-75
2022/04/11 01:25:03;;;;;;;5.38;3.40;;;;;;;;;;5087154;28;20059;-75
2022/04/11 01:27:31;;;;;;;6.47;3.92;;;;;;;;;;5085015;28;20035;-73
2022/04/11 01:29:57;;;;;;;6.47;3.67;;;;;;;;;;5090328;28;20528;-74
2022/04/11 01:32:23;;;;;;;7.35;3.47;;;;;;;;;;5083256;28;20115;-74
2022/04/11 01:34:49;;;;;;;7.10;4.15;;;;;;;;;;5067446;28;20048;-76
2022/04/11 01:37:15;;;;;;;6.43;3.63;;;;;;;;;;5081711;28;20044;-74
2022/04/11 01:39:41;;;;;;;10.13;3.85;;;;;;;;;;5084897;28;20052;-73
2022/04/11 01:42:08;;;;;;;9.35;4.00;;;;;;;;;;5066320;28;20132;-73
2022/04/11 01:44:34;;;;;;;7.63;4.00;;;;;;;;;;5084051;28;20040;-75
2022/04/11 01:47:00;;;;;;;8.68;4.20;;;;;;;;;;5086008;28;20100;-74
2022/04/11 01:49:26;;;;;;;10.18;3.67;;;;;;;;;;5065055;28;20048;-74
2022/04/11 01:51:52;;;;;;;7.68;3.55;;;;;;;;;;5084333;28;20085;-73
2022/04/11 01:54:18;;;;;;;9.15;3.72;;;;;;;;;;5065609;28;20059;-73
2022/04/11 01:56:44;;;;;;;8.75;3.67;;;;;;;;;;5050280;28;20055;-74
2022/04/11 01:59:12;;;;;;;11.23;3.67;;;;;;;;;;5080852;28;20171;-75
2022/04/11 02:01:38;;;;;;;7.07;3.75;;;;;;;;;;5064319;28;20063;-73
2022/04/11 02:04:04;;;;;;;10.70;4.40;;;;;;;;;;5082180;28;20131;-74
2022/04/11 02:06:30;;;;;;;11.50;4.30;;;;;;;;;;5066432;28;20066;-74
2022/04/11 02:08:56;;;;;;;7.03;3.35;;;;;;;;;;5066416;28;20440;-74
2022/04/11 02:11:23;;;;;;;6.55;3.65;;;;;;;;;;5051273;28;20040;-73
2022/04/11 02:13:49;;;;;;;8.25;4.20;;;;;;;;;;5082071;28;20047;-73
2022/04/11 02:16:15;;;;;;;8.60;4.00;;;;;;;;;;5082137;28;20050;-73
2022/04/11 02:18:41;;;;;;;6.45;2.97;;;;;;;;;;5081467;28;20105;-75
2022/04/11 02:21:07;;;;;;;8.10;3.50;;;;;;;;;;5063090;28;20044;-74
2022/04/11 02:23:33;;;;;;;8.35;4.40;;;;;;;;;;5082224;28;20503;-73
2022/04/11 02:25:59;;;;;;;5.88;3.47;;;;;;;;;;5081234;28;20081;-73
2022/04/11 02:28:25;;;;;;;6.82;2.90;;;;;;;;;;5080127;28;20043;-74
2022/04/11 02:30:51;;;;;;;8.13;3.78;;;;;;;;;;5090363;28;20047;-73
2022/04/11 02:33:17;;;;;;;11.40;3.85;;;;;;;;;;5069695;28;20063;-73
2022/04/11 02:35:43;;;;;;;9.85;3.60;;;;;;;;;;5088574;28;20115;-75
2022/04/11 02:38:10;;;;;;;9.73;4.20;;;;;;;;;;5074689;28;20044;-75
2022/04/11 02:40:36;;;;;;;10.70;4.22;;;;;;;;;;5086978;28;20048;-73
2022/04/11 02:43:02;;;;;;;7.72;3.55;;;;;;;;;;5091464;28;20039;-74
2022/04/11 02:45:28;;;;;;;7.60;3.63;;;;;;;;;;5091771;28;20048;-73
2022/04/11 02:47:54;;;;;;;5.20;3.28;;;;;;;;;;5089854;28;20036;-74
2022/04/11 02:50:20;;;;;;;8.18;4.40;;;;;;;;;;5123259;27;20053;-76
2022/04/11 02:52:47;;;;;;;6.32;3.60;;;;;;;;;;5058841;28;20047;-73
2022/04/11 02:55:13;;;;;;;5.55;3.55;;;;;;;;;;5070610;28;20135;-75
2022/04/11 02:57:39;;;;;;;8.15;3.60;;;;;;;;;;5073665;27;20051;-74
2022/04/11 03:00:07;;;;;;;8.93;3.47;;;;;;;;;;5093560;28;20050;-74
2022/04/11 03:02:33;;;;;;;6.57;3.35;;;;;;;;;;5090194;27;20457;-73
2022/04/11 03:04:59;;;;;;;7.07;3.40;;;;;;;;;;5103746;27;20456;-73
2022/04/11 03:07:27;;;;;;;8.30;3.50;;;;;;;;;;5074770;28;20079;-73
2022/04/11 03:09:54;;;;;;;5.70;3.50;;;;;;;;;;5087190;28;20114;-73
2022/04/11 03:12:20;;;;;;;4.68;3.13;;;;;;;;;;5124053;27;20047;-73
2022/04/11 03:14:48;;;;;;;5.47;3.35;;;;;;;;;;5131737;27;20465;-73
2022/04/11 03:17:15;;;;;;;7.38;3.63;;;;;;;;;;5118346;27;20054;-75
2022/04/11 03:19:42;;;;;;;8.90;3.22;;;;;;;;;;5107288;27;20038;-74
2022/04/11 03:22:09;;;;;;;8.18;3.25;;;;;;;;;;5072448;28;20039;-74
2022/04/11 03:24:35;;;;;;;7.97;3.03;;;;;;;;;;5125564;27;20178;-73
2022/04/11 03:27:01;;;;;;;7.47;3.45;;;;;;;;;;5072055;28;20075;-73
2022/04/11 03:29:27;;;;;;;6.10;3.35;;;;;;;;;;5077303;27;20488;-73
2022/04/11 03:31:53;;;;;;;9.18;4.05;;;;;;;;;;5088147;28;20059;-73
2022/04/11 03:34:19;;;;;;;9.02;4.18;;;;;;;;;;5087522;27;20031;-74
2022/04/11 03:36:46;;;;;;;6.35;2.83;;;;;;;;;;5088740;28;20044;-76
2022/04/11 03:39:12;;;;;;;8.43;3.47;;;;;;;;;;5121183;27;20051;-74
2022/04/11 03:41:38;;;;;;;7.30;3.78;;;;;;;;;;5092778;28;20035;-73
2022/04/11 03:44:04;;;;;;;9.60;4.75;;;;;;;;;;5075903;27;20042;-74
2022/04/11 03:46:30;;;;;;;5.55;3.45;;;;;;;;;;5081055;27;20039;-73
2022/04/11 03:48:57;;;;;;;4.60;3.08;;;;;;;;;;5055218;27;20048;-74
2022/04/11 03:51:23;;;;;;;8.50;3.17;;;;;;;;;;5072578;28;20122;-74
2022/04/11 03:53:49;;;;;;;6.72;3.38;;;;;;;;;;5071573;27;20474;-76
2022/04/11 03:56:17;;;;;;;8.77;3.45;;;;;;;;;;5090323;28;20482;-74
2022/04/11 03:58:43;;;;;;;8.38;3.65;;;;;;;;;;5074109;27;20050;-74
2022/04/11 04:01:10;;;;;;;6.65;3.47;;;;;;;;;;5090860;28;20043;-74
2022/04/11 04:03:36;;;;;;;6.63;3.28;;;;;;;;;;5089365;28;20040;-74
2022/04/11 04:06:02;;;;;;;5.90;3.90;;;;;;;;;;5091624;27;20047;-73
2022/04/11 04:08:28;;;;;;;7.53;3.95;;;;;;;;;;5086459;28;20032;-74
2022/04/11 04:10:54;;;;;;;4.70;3.40;;;;;;;;;;5105401;27;20047;-74
2022/04/11 04:13:20;;;;;;;4.20;3.33;;;;;;;;;;5072631;27;20042;-74
2022/04/11 04:15:46;;;;;;;5.50;3.80;;;;;;;;;;5088837;28;20032;-73
2022/04/11 04:18:12;;;;;;;7.53;3.70;;;;;;;;;;5073519;27;20047;-74
2022/04/11 04:20:39;;;;;;;6.22;3.13;;;;;;;;;;5089322;28;20047;-74
2022/04/11 04:23:05;;;;;;;9.20;3.53;;;;;;;;;;5088706;27;20046;-73
2022/04/11 04:25:33;;;;;;;8.35;3.92;;;;;;;;;;5090995;28;20070;-73
2022/04/11 04:27:59;;;;;;;8.40;4.78;;;;;;;;;;5122210;27;20124;-74
2022/04/11 04:30:25;;;;;;;9.13;3.83;;;;;;;;;;5122144;27;20764;-74
2022/04/11 04:32:52;;;;;;;6.93;3.25;;;;;;;;;;5086051;28;20173;-74
2022/04/11 04:35:18;;;;;;;5.00;2.88;;;;;;;;;;5085335;28;20126;-74
2022/04/11 04:37:44;;;;;;;8.43;3.10;;;;;;;;;;5125636;27;20055;-74
2022/04/11 04:40:11;;;;;;;9.77;3.05;;;;;;;;;;5088633;28;20052;-74
2022/04/11 04:42:37;;;;;;;6.30;3.08;;;;;;;;;;5091817;28;20043;-74
2022/04/11 04:45:03;;;;;;;7.47;3.15;;;;;;;;;;5083941;27;20048;-74
2022/04/11 04:47:29;;;;;;;7.40;2.90;;;;;;;;;;5082863;28;20066;-75
2022/04/11 04:49:55;;;;;;;5.20;2.83;;;;;;;;;;5086460;27;20672;-74
2022/04/11 04:52:21;;;;;;;7.88;2.83;;;;;;;;;;5100054;27;20127;-72
2022/04/11 04:54:47;;;;;;;5.55;2.80;;;;;;;;;;5096647;28;20032;-72
2022/04/11 04:57:13;;;;;;;9.35;3.40;;;;;;;;;;5103671;28;20048;-73
2022/04/11 04:59:39;;;;;;;9.30;3.47;;;;;;;;;;5098922;27;20051;-73
2022/04/11 05:02:06;;;;;;;5.63;2.55;;;;;;;;;;5089352;27;20050;-73
2022/04/11 05:04:32;;;;;;;13.20;4.45;;;;;;;;;;5099570;28;20047;-73
2022/04/11 05:06:58;;;;;;;6.78;3.10;;;;;;;;;;5091436;28;20546;-73
2022/04/11 05:09:24;;;;;;;4.65;2.28;;;;;;;;;;5090060;28;20478;-73
2022/04/11 05:11:50;;;;;;;8.80;3.00;;;;;;;;;;5103633;28;20043;-71
2022/04/11 05:14:16;;;;;;;5.75;2.60;;;;;;;;;;5085536;28;20127;-73
2022/04/11 05:16:42;;;;;;;9.25;3.05;;;;;;;;;;5077684;28;20511;-72
2022/04/11 05:19:08;;;;;;;10.75;3.35;;;;;;;;;;5082225;28;20405;-75
2022/04/11 05:21:34;;;;;;;6.93;3.40;;;;;;;;;;5092130;28;20386;-73
2022/04/11 05:24:00;;;;;;;10.55;3.35;;;;;;;;;;5126439;27;20435;-71
2022/04/11 05:26:26;;;;;;;7.78;3.60;;;;;;;;;;5050868;28;20982;-71
2022/04/11 05:28:52;;;;;;;7.97;4.25;;;;;;;;;;5082029;28;20545;-72
2022/04/11 05:31:18;;;;;;;7.75;3.70;;;;;;;;;;5084491;28;21261;-73
2022/04/11 05:33:45;;;;;;;8.63;3.40;;;;;;;;;;5132324;27;20039;-71
2022/04/11 05:36:11;;;;;;;8.57;3.38;;;;;;;;;;5086214;28;20109;-73
2022/04/11 05:38:37;;;;;;;8.98;3.10;;;;;;;;;;5094755;28;20482;-71
2022/04/11 05:41:04;;;;;;;6.00;3.67;;;;;;;;;;5084559;28;20398;-73
2022/04/11 05:43:30;;;;;;;6.28;3.28;;;;;;;;;;5078548;28;20047;-73
2022/04/11 05:45:56;;;;;;;4.78;3.40;;;;;;;;;;5078624;28;20071;-76
2022/04/11 05:48:22;;;;;;;5.57;2.92;;;;;;;;;;5086888;28;20044;-74
2022/04/11 05:50:48;;;;;;;5.30;2.70;;;;;;;;;;5109440;28;20109;-75
2022/04/11 05:53:14;;;;;;;5.20;3.20;;;;;;;;;;5082962;28;20052;-74
2022/04/11 05:55:40;;;;;;;10.57;3.03;;;;;;;;;;5102578;28;20127;-75
2022/04/11 05:58:06;;;;;;;5.55;3.05;;;;;;;;;;5103949;28;20051;-73
2022/04/11 06:00:32;;;;;;;5.82;3.30;;;;;;;;;;5078982;28;20050;-73
2022/04/11 06:02:59;;;;;;;4.32;3.00;;;;;;;;;;5123616;27;20137;-73
2022/04/11 06:05:25;;;;;;;6.30;3.25;;;;;;;;;;5116150;27;20093;-73
2022/04/11 06:07:51;;;;;;;8.25;3.20;;;;;;;;;;5080421;28;20562;-73
2022/04/11 06:10:17;;;;;;;8.88;3.30;;;;;;;;;;5091961;27;20537;-73
2022/04/11 06:12:43;;;;;;;4.68;2.92;;;;;;;;;;5105426;28;20039;-72
2022/04/11 06:15:11;;;;;;;5.35;3.10;;;;;;;;;;5084181;28;20043;-73
2022/04/11 06:17:38;;;;;;;5.85;2.75;;;;;;;;;;5085085;27;20055;-73
2022/04/11 06:20:04;;;;;;;5.05;3.10;;;;;;;;;;5089511;28;20105;-73
2022/04/11 06:22:30;;;;;;;9.85;3.55;;;;;;;;;;5089855;27;20138;-72
2022/04/11 06:25:00;;;;;;;7.15;3.17;;;;;;;;;;5085906;28;20541;-73
2022/04/11 06:27:26;;;;;;;6.35;3.20;;;;;;;;;;5122006;27;20073;-73
2022/04/11 06:29:56;;;;;;;8.10;2.90;;;;;;;;;;5111389;27;20121;-73
2022/04/11 06:32:29;;;;;;;6.85;3.00;;;;;;;;;;5070487;28;20081;-73
2022/04/11 06:34:55;;;;;;;6.10;2.93;;;;;;;;;;5084588;28;20039;-73
2022/04/11 06:37:23;;;;;;;5.75;2.88;;;;;;;;;;5101266;28;20492;-73
2022/04/11 06:39:49;;;;;;;4.00;2.80;;;;;;;;;;5131481;27;20051;-72
2022/04/11 06:42:15;;;;;;;6.40;3.10;;;;;;;;;;5102067;28;20066;-73
2022/04/11 06:44:41;;;;;;;6.93;3.15;;;;;;;;;;5098910;28;20079;-73
2022/04/11 06:47:08;;;;;;;5.88;3.13;;;;;;;;;;5108041;27;20051;-73
2022/04/11 06:49:35;;;;;;;6.75;2.90;;;;;;;;;;5077142;28;20091;-73
2022/04/11 06:52:01;;;;;;;5.97;2.45;;;;;;;;;;5114944;27;20039;-73
2022/04/11 06:54:27;;;;;;;8.30;2.75;;;;;;;;;;5098955;27;20039;-73
2022/04/11 06:56:54;;;;;;;5.47;2.75;;;;;;;;;;5101172;28;20090;-73
2022/04/11 06:59:20;;;;;;;4.88;2.50;;;;;;;;;;5075329;28;20446;-73
2022/04/11 07:01:46;;;;;;;7.90;2.63;;;;;;;;;;5135578;27;20053;-73
2022/04/11 07:04:12;;;;;;;8.50;2.78;;;;;;;;;;5097525;28;20497;-73
2022/04/11 07:06:38;;;;;;;6.18;2.70;;;;;;;;;;5083015;27;20051;-74
2022/04/11 07:09:04;;;;;;;4.03;2.15;;;;;;;;;;5084415;28;20040;-73
2022/04/11 07:11:33;;;;;;;6.53;2.80;;;;;;;;;;5099482;28;20043;-73
2022/04/11 07:13:59;;;;;;;4.22;2.63;;;;;;;;;;5115817;27;20043;-72
2022/04/11 07:16:25;;;;;;;4.03;2.10;;;;;;;;;;5123739;27;20118;-73
2022/04/11 07:18:51;;;;;;;7.18;2.17;;;;;;;;;;5124188;27;20058;-76
2022/04/11 07:21:18;;;;;;;3.88;2.20;;;;;;;;;;5108727;27;20055;-72
2022/04/11 07:23:44;;;;;;;6.05;2.17;;;;;;;;;;5085472;28;20039;-73
2022/04/11 07:26:10;;;;;;;10.38;2.50;;;;;;;;;;5095552;28;20047;-72
2022/04/11 07:28:36;;;;;;;4.32;2.03;;;;;;;;;;5100024;28;20039;-71
2022/04/11 07:31:02;;;;;;;6.00;2.17;;;;;;;;;;5089657;28;20043;-72
2022/04/11 07:33:28;;;;;;;9.23;2.13;;;;;;;;;;5073632;28;20083;-74
2022/04/11 07:35:54;;;;;;;4.20;1.60;;;;;;;;;;5084116;27;20047;-73
2022/04/11 07:38:21;;;;;;;6.22;2.15;;;;;;;;;;5100653;27;20043;-71
2022/04/11 07:40:47;;;;;;;4.95;1.80;;;;;;;;;;5081056;28;20169;-75
2022/04/11 07:43:14;;;;;;;12.10;1.88;;;;;;;;;;5114652;27;20040;-73
2022/04/11 07:45:40;;;;;;;5.45;2.35;;;;;;;;;;5115460;27;20534;-73
2022/04/11 07:48:07;;;;;;;3.67;1.75;;;;;;;;;;5114567;27;20074;-73
2022/04/11 07:50:33;;;;;;;6.28;2.20;;;;;;;;;;5085479;28;20470;-73
2022/04/11 07:52:59;;;;;;;5.40;1.63;;;;;;;;;;5116770;27;20044;-74
2022/04/11 07:55:25;;;;;;;;;;;;;;;;;;5090211;27;20146;-75
2022/04/11 07:57:51;;;;;;;;;;;;;;;;;;5084848;28;19928;-74
2022/04/11 08:00:17;;;;;;;;;;;;;;;;;;5117589;27;19927;-74
2022/04/11 08:02:43;;;;;;;;;;;;;;;;;;5113349;27;19955;-73
2022/04/11 08:05:08;;;;;;;;;;;;;;;;;;5116688;27;19919;-73
2022/04/11 08:07:35;;;;;;;;;;;;;;;;;;5080651;28;19938;-73
2022/04/11 08:10:01;;;;;;;;;;;;;;;;;;5109445;27;20011;-73
2022/04/11 08:12:27;;;;;;;;;;;;;;;;;;5076393;28;19935;-72
2022/04/11 08:14:53;;;;;;;;;;;;;;;;;;5116452;27;20290;-73
2022/04/11 08:17:19;;;;;;;;;;;;;;;;;;5123069;27;20023;-73
2022/04/11 08:19:44;;;;;;;;;;;;;;;;;;5076780;28;19976;-73
2022/04/11 08:22:10;;;;;;;;;;;;;;;;;;5089596;28;20378;-72
2022/04/11 08:24:36;;;;;;;;;;;;;;;;;;5076832;28;19976;-72
2022/04/11 08:27:02;;;;;;;;;;;;;;;;;;5078288;28;19920;-71
2022/04/11 08:29:28;;;;;;;;;;;;;;;;;;5077243;28;19945;-71
2022/04/11 08:31:54;;;;;;;;;;;;;;;;;;5112407;27;19927;-72
2022/04/11 08:34:20;;;;;;;;;;;;;;;;;;5075896;28;19920;-72
2022/04/11 08:36:46;;;;;;;;;;;;;;;;;;5104479;28;20303;-72
2022/04/11 08:39:12;;;;;;;;;;;;;;;;;;5081043;28;19928;-72
2022/04/11 08:41:38;;;;;;;;;;;;;;;;;;5066528;28;19927;-73
2022/04/11 08:44:07;;;;;;;;;;;;;;;;;;5099270;28;19949;-72
2022/04/11 08:46:34;;;;;;;;;;;;;;;;;;5076960;28;19946;-73
2022/04/11 08:49:00;;;;;;;;;;;;;;;;;;5080143;28;19924;-73
2022/04/11 08:51:26;;;;;;;;;;;;;;;;;;5075223;28;19939;-73
2022/04/11 08:53:52;;;;;;;;;;;;;;;;;;5108776;27;20390;-73
2022/04/11 08:56:18;;;;;;;;;;;;;;;;;;5077932;28;20358;-76
2022/04/11 08:58:44;;;;;;;;;;;;;;;;;;5116538;27;20263;-73
2022/04/11 09:01:10;;;;;;;;;;;;;;;;;;5079081;28;19924;-76
2022/04/11 09:03:36;;;;;;;;;;;;;;;;;;5082595;28;20002;-73
2022/04/11 09:06:02;;;;;;;;;;;;;;;;;;5088797;28;19991;-78
2022/04/11 09:08:28;;;;;;;;;;;;;;;;;;5073593;28;19916;-72
2022/04/11 09:10:54;;;;;;;;;;;;;;;;;;5085572;28;19915;-74
2022/04/11 09:13:20;;;;;;;;;;;;;;;;;;5084707;28;19942;-72
2022/04/11 09:15:45;;;;;;;;;;;;;;;;;;5086440;28;20398;-76
2022/04/11 09:18:12;;;;;;;;;;;;;;;;;;5091989;28;20381;-77
2022/04/11 09:20:37;;;;;;;;;;;;;;;;;;5095503;28;19920;-74
2022/04/11 09:23:03;;;;;;;;;;;;;;;;;;5089883;28;20135;-75
2022/04/11 09:25:29;;;;;;;;;;;;;;;;;;5086533;28;19927;-73
2022/04/11 09:27:55;;;;;;;;;;;;;;;;;;5085463;28;19950;-73
2022/04/11 09:30:22;;;;;;;;;;;;;;;;;;5078793;28;19963;-74
2022/04/11 09:32:47;;;;;;;;;;;;;;;;;;5112894;28;20006;-74
2022/04/11 09:35:13;;;;;;;;;;;;;;;;;;5074975;28;20476;-77
2022/04/11 09:37:39;;;;;;;;;;;;;;;;;;5093271;28;20394;-73
2022/04/11 09:40:05;;;;;;;;;;;;;;;;;;5085495;28;20295;-77
2022/04/11 09:42:31;;;;;;;;;;;;;;;;;;5076425;28;20285;-76
2022/04/11 09:44:57;;;;;;;;;;;;;;;;;;5088792;28;19924;-76
2022/04/11 09:47:23;;;;;;;;;;;;;;;;;;5096017;28;19927;-75
2022/04/11 09:49:49;;;;;;;;;;;;;;;;;;5117810;27;19924;-74
2022/04/11 09:52:15;;;;;;;;;;;;;;;;;;5092733;28;20367;-77
2022/04/11 09:54:44;;;;;;;;;;;;;;;;;;5091303;28;20454;-77
2022/04/11 09:57:10;;;;;;;;;;;;;;;;;;5092433;28;20413;-75
2022/04/11 09:59:36;;;;;;;;;;;;;;;;;;5089606;28;20011;-75
2022/04/11 10:02:02;;;;;;;;;;;;;;;;;;5086159;28;20065;-74
2022/04/11 10:04:28;;;;;;;;;;;;;;;;;;5073892;28;19924;-73
2022/04/11 10:06:54;;;;;;;;;;;;;;;;;;5085731;28;20358;-72
2022/04/11 10:09:22;;;;;;;;;;;;;;;;;;5072963;28;20006;-73
2022/04/11 10:11:48;;;;;;;;;;;;;;;;;;5110899;27;19943;-73
2022/04/11 10:14:17;;;;;;;;;;;;;;;;;;5091592;28;20367;-71
2022/04/11 10:16:43;;;;;;;;;;;;;;;;;;5090988;28;19947;-72
2022/04/11 10:19:09;;;;;;;;;;;;;;;;;;5090648;28;20397;-71
2022/04/11 10:21:35;;;;;;;;;;;;;;;;;;5090637;28;19916;-71
2022/04/11 10:24:00;;;;;;;;;;;;;;;;;;5091248;28;20324;-70
2022/04/11 10:26:26;;;;;;;;;;;;;;;;;;5088358;28;19922;-74
2022/04/11 10:28:52;;;;;;;;;;;;;;;;;;5087678;28;19930;-72
2022/04/11 10:31:18;;;;;;;;;;;;;;;;;;5089303;28;19955;-73
2022/04/11 10:33:44;;;;;;;;;;;;;;;;;;5089203;28;20014;-75
2022/04/11 10:36:10;;;;;;;;;;;;;;;;;;5092094;28;20016;-77
2022/04/11 10:38:36;;;;;;;;;;;;;;;;;;5125250;27;19919;-75
2022/04/11 10:41:02;;;;;;;;;;;;;;;;;;5108692;28;19926;-77
2022/04/11 10:43:28;;;;;;;;;;;;;;;;;;5093830;28;19923;-77
2022/04/11 10:45:54;;;;;;;;;;;;;;;;;;5093467;27;20021;-76
2022/04/11 10:48:24;;;;;;;;;;;;;;;;;;5095281;28;20458;-75
2022/04/11 10:50:50;;;;;;;;;;;;;;;;;;5093399;28;19927;-81
2022/04/11 10:53:23;;;;;;;;;;;;;;;;;;5110817;28;20384;-83
2022/04/11 10:55:49;;;;;;;;;;;;;;;;;;5145678;27;20006;-80
2022/04/11 10:58:15;;;;;;;;;;;;;;;;;;5128188;27;20018;-81
2022/04/11 11:00:41;;;;;;;;;;;;;;;;;;5076213;28;19920;-80
2022/04/11 11:03:08;;;;;;;;;;;;;;;;;;5094078;28;20461;-80
2022/04/11 11:05:40;;;;;;;;;;;;;;;;;;5077351;28;19926;-81
2022/04/11 11:08:06;;;;;;;;;;;;;;;;;;5094105;28;19924;-80
2022/04/11 11:10:32;;;;;;;;;;;;;;;;;;5090347;28;19923;-81
2022/04/11 11:12:58;;;;;;;;;;;;;;;;;;5110709;28;19919;-79
2022/04/11 11:15:24;;;;;;;;;;;;;;;;;;5109278;28;19920;-80
2022/04/11 11:17:50;;;;;;;;;;;;;;;;;;5097679;28;19919;-80
2022/04/11 11:20:16;;;;;;;;;;;;;;;;;;5093859;28;20010;-80
2022/04/11 11:22:42;;;;;;;;;;;;;;;;;;5075861;27;19927;-78
2022/04/11 11:25:08;;;;;;;;;;;;;;;;;;5108525;27;19926;-77
2022/04/11 11:27:34;;;;;;;;;;;;;;;;;;5096906;28;19957;-76
2022/04/11 11:30:00;;;;;;;;;;;;;;;;;;5116573;27;19923;-85
2022/04/11 11:32:26;;;;;;;;;;;;;;;;;;5107482;27;19930;-80
2022/04/11 11:34:52;;;;;;;;;;;;;;;;;;5090599;28;19936;-79
2022/04/11 11:37:18;;;;;;;;;;;;;;;;;;5112387;27;19930;-78
2022/04/11 11:39:45;;;;;;;;;;;;;;;;;;5113527;27;19927;-79
2022/04/11 11:42:11;;;;;;;;;;;;;;;;;;5087270;28;20020;-82
2022/04/11 11:44:37;;;;;;;;;;;;;;;;;;5109477;27;20451;-83
2022/04/11 11:47:03;;;;;;;;;;;;;;;;;;5099497;27;19919;-81
2022/04/11 11:49:28;;;;;;;;;;;;;;;;;;5101665;28;19924;-82
2022/04/11 11:51:55;;;;;;;;;;;;;;;;;;5097295;27;19919;-82
2022/04/11 11:54:21;;;;;;;;;;;;;;;;;;5118780;27;19920;-81
2022/04/11 11:56:46;;;;;;;;;;;;;;;;;;5089429;27;19931;-84
2022/04/11 11:59:12;;;;;;;;;;;;;;;;;;5104763;28;19970;-85
2022/04/11 12:04:18;;;;;;;;;;;;;;;;;;5142392;27;19919;-84
2022/04/11 12:04:24;;;;;;;;;;;;;;;;;;5096486;27;19920;-84
2022/04/11 12:06:50;;;;;;;;;;;;;;;;;;5082352;28;19920;-82
2022/04/11 12:09:16;;;;;;;;;;;;;;;;;;5090785;28;19920;-83
2022/04/11 12:11:42;;;;;;;;;;;;;;;;;;5085010;28;19919;-83
2022/04/11 12:14:08;;;;;;;;;;;;;;;;;;5130569;27;20068;-85
2022/04/11 12:16:34;;;;;;;;;;;;;;;;;;5098837;28;19927;-82
2022/04/11 12:19:00;;;;;;;;;;;;;;;;;;5113570;27;19923;-83
2022/04/11 12:21:26;;;;;;;;;;;;;;;;;;5092608;28;19946;-83
2022/04/11 12:23:52;;;;;;;;;;;;;;;;;;5109820;27;19927;-83
2022/04/11 12:26:18;;;;;;;;;;;;;;;;;;5126001;27;19938;-79
2022/04/11 12:28:44;;;;;;;;;;;;;;;;;;5081577;27;19919;-80
2022/04/11 12:31:12;;;;;;;;;;;;;;;;;;5089170;28;20544;-82
2022/04/11 12:33:38;;;;;;;;;;;;;;;;;;5082404;27;19968;-82
2022/04/11 12:36:04;;;;;;;;;;;;;;;;;;5114913;27;19970;-83
2022/04/11 12:38:30;;;;;;;;;;;;;;;;;;5093436;28;19923;-82
2022/04/11 12:40:56;;;;;;;;;;;;;;;;;;5120273;27;20274;-81
2022/04/11 12:43:22;;;;;;;;;;;;;;;;;;5103439;28;19927;-83
2022/04/11 12:45:48;;;;;;;;;;;;;;;;;;5092752;27;19919;-84
2022/04/11 12:48:14;;;;;;;;;;;;;;;;;;5108873;27;20305;-82
2022/04/11 12:50:41;;;;;;;;;;;;;;;;;;5085574;28;20293;-81
2022/04/11 12:53:07;;;;;;;;;;;;;;;;;;5098038;28;20010;-81
2022/04/11 12:55:33;;;;;;;;;;;;;;;;;;5097738;27;19971;-77
2022/04/11 12:57:59;;;;;;;;;;;;;;;;;;5094248;27;19969;-85
2022/04/11 13:00:25;;;;;;;;;;;;;;;;;;5095997;28;19935;-78
2022/04/11 13:02:52;;;;;;;;;;;;;;;;;;5099424;28;20285;-78
2022/04/11 13:05:18;;;;;;;;;;;;;;;;;;5101267;28;20007;-80
2022/04/11 13:07:44;;;;;;;;;;;;;;;;;;5091701;28;20402;-76
2022/04/11 13:10:10;;;;;;;;;;;;;;;;;;5114664;27;19930;-77
2022/04/11 13:12:36;;;;;;;;;;;;;;;;;;5079077;28;19919;-77
2022/04/11 13:15:02;;;;;;;;;;;;;;;;;;5107019;28;19919;-78
2022/04/11 13:20:15;;;;;;;;;;;;;;;;;;5083989;28;19920;-77
2022/04/11 13:22:41;;;;;;;;;;;;;;;;;;5096960;28;19926;-77
2022/04/11 13:25:07;;;;;;;;;;;;;;;;;;5125863;27;20016;-76
2022/04/11 13:27:33;;;;;;;;;;;;;;;;;;5114098;27;19945;-78
2022/04/11 13:29:59;;;;;;;;;;;;;;;;;;5117409;28;20333;-77
2022/04/11 13:32:25;;;;;;;;;;;;;;;;;;5104864;28;20304;-76
2022/04/11 13:34:51;;;;;;;;;;;;;;;;;;5117446;28;19920;-76
2022/04/11 13:37:17;;;;;;;4.72;2.95;;;;;;;;;;5125225;28;20430;-77
2022/04/11 13:39:43;;;;;;;4.85;3.13;;;;;;;;;;5075273;28;20483;-79
2022/04/11 13:42:09;;;;;;;4.57;2.95;;;;;;;;;;5085357;28;20043;-76
2022/04/11 13:44:35;;;;;;;5.80;3.20;;;;;;;;;;5075800;28;20045;-77
2022/04/11 13:47:01;;;;;;;7.93;2.83;;;;;;;;;;5059781;28;20044;-76
2022/04/11 13:49:27;;;;;;;4.50;2.85;;;;;;;;;;5092146;28;20039;-78
2022/04/11 13:51:53;;;;;;;4.70;2.95;;;;;;;;;;5073357;28;20088;-77
2022/04/11 13:54:19;;;;;;;7.30;3.10;;;;;;;;;;5075150;28;20048;-77
2022/04/11 13:56:46;;;;;;;7.05;3.13;;;;;;;;;;5071492;28;20050;-77
2022/04/11 13:59:15;;;;;;;6.30;3.25;;;;;;;;;;5076740;28;20100;-77
2022/04/11 14:01:42;;;;;;;6.60;3.17;;;;;;;;;;5080805;28;20036;-77
2022/04/11 14:04:09;;;;;;;4.40;2.90;;;;;;;;;;5074973;28;20055;-77
2022/04/11 14:06:35;;;;;;;5.57;2.85;;;;;;;;;;5076875;28;20463;-76
2022/04/11 14:09:03;;;;;;;6.45;3.08;;;;;;;;;;5087166;28;20055;-77
2022/04/11 14:11:29;;;;;;;6.40;3.08;;;;;;;;;;5078207;28;20052;-76
2022/04/11 14:13:55;;;;;;;5.35;3.30;;;;;;;;;;5079875;28;20124;-77
2022/04/11 14:16:21;;;;;;;5.03;3.08;;;;;;;;;;5101060;28;20378;-77
2022/04/11 14:18:47;;;;;;;3.92;3.00;;;;;;;;;;5062374;28;20051;-76
2022/04/11 14:21:14;;;;;;;6.32;3.15;;;;;;;;;;5129358;27;20047;-76
2022/04/11 14:23:40;;;;;;;6.32;3.08;;;;;;;;;;5066890;28;20428;-76
2022/04/11 14:26:06;;;;;;;5.80;3.35;;;;;;;;;;5106332;28;20489;-76
2022/04/11 14:28:34;;;;;;;5.15;2.95;;;;;;;;;;5126245;27;20043;-76
2022/04/11 14:31:00;;;;;;;5.35;3.15;;;;;;;;;;5096780;28;20043;-77
2022/04/11 14:33:26;;;;;;;5.05;2.85;;;;;;;;;;5077623;28;20542;-77
2022/04/11 14:35:52;;;;;;;7.40;3.28;;;;;;;;;;5098358;28;20070;-77
2022/04/11 14:38:18;;;;;;;6.05;3.03;;;;;;;;;;5119956;27;20505;-76
2022/04/11 14:40:45;;;;;;;5.57;2.60;;;;;;;;;;5080349;28;20051;-77
2022/04/11 14:43:11;;;;;;;7.80;2.90;;;;;;;;;;5113895;27;20044;-76
2022/04/11 14:45:37;;;;;;;7.63;3.00;;;;;;;;;;5117985;27;20124;-77
2022/04/11 14:48:04;;;;;;;5.53;2.75;;;;;;;;;;5081822;28;20058;-78
2022/04/11 14:50:31;;;;;;;5.93;3.10;;;;;;;;;;5078667;28;20079;-79
2022/04/11 14:52:57;;;;;;;5.57;2.90;;;;;;;;;;5091894;27;20051;-76
2022/04/11 14:55:23;;;;;;;5.35;3.10;;;;;;;;;;5076421;28;20055;-76
2022/04/11 14:57:49;;;;;;;5.70;3.08;;;;;;;;;;5128409;27;20054;-77
2022/04/11 15:00:16;;;;;;;6.60;2.97;;;;;;;;;;5094231;28;20069;-76
2022/04/11 15:02:42;;;;;;;8.38;2.78;;;;;;;;;;5092138;28;20087;-75
2022/04/11 15:05:08;;;;;;;5.05;2.92;;;;;;;;;;5110308;28;20052;-75
2022/04/11 15:07:34;;;;;;;4.03;3.03;;;;;;;;;;5102238;28;20077;-76
2022/04/11 15:10:02;;;;;;;7.55;2.72;;;;;;;;;;5086697;27;20576;-76
2022/04/11 15:12:28;;;;;;;7.18;3.17;;;;;;;;;;5102600;27;20118;-77
2022/04/11 15:14:54;;;;;;;4.75;2.80;;;;;;;;;;5080888;28;20496;-76
2022/04/11 15:17:20;;;;;;;7.07;3.05;;;;;;;;;;5090907;27;20048;-76
2022/04/11 15:19:48;;;;;;;4.47;2.83;;;;;;;;;;5094528;28;20052;-76
2022/04/11 15:22:14;;;;;;;6.30;3.17;;;;;;;;;;5078077;28;20047;-76